sensor_id;sensor_type;location;lat;lon;timestamp;P1;P2;P0
34176;PMS7003;20450;49.074;9.158;2023-03-31T00:02:04;3.00;1.00;0.50
34176;PMS7003;20450;49.074;9.158;2023-03-31T00:04:32;0.25;0.25;0.00
34176;PMS7003;20450;49.074;9.158;2023-03-31T00:06:59;1.00;1.00;1.00
34176;PMS7003;20450;49.074;9.158;2023-03-31T00:09:26;0.00;0.00;0.00
34176;PMS7003;20450;49.074;9.158;2023-03-31T00:11:53;1.00;1.00;0.75
34176;PMS7003;20450;49.074;9.158;2023-03-31T00:14:20;20.25;20.25;19.50
34176;PMS7003;20450;49.074;9.158;2023-03-31T00:16:47;1.00;1.00;0.00
34176;PMS7003;20450;49.074;9.158;2023-03-31T00:19:14;1.33;1.00;1.00
34176;PMS7003;20450;49.074;9.158;2023-03-31T00:21:43;0.67;0.67;0.00
34176;PMS7003;20450;49.074;9.158;2023-03-31T00:24:11;0.33;0.33;0.00
34176;PMS7003;20450;49.074;9.158;2023-03-31T00:26:39;1.00;1.00;0.33
34176;PMS7003;20450;49.074;9.158;2023-03-31T00:29:07;0.67;0.67;0.33
34176;PMS7003;20450;49.074;9.158;2023-03-31T00:31:38;1.67;1.67;1.00
34176;PMS7003;20450;49.074;9.158;2023-03-31T00:34:06;1.67;1.67;1.00
34176;PMS7003;20450;49.074;9.158;2023-03-31T00:36:33;0.00;0.00;0.00
34176;PMS7003;20450;49.074;9.158;2023-03-31T00:39:03;0.33;0.33;0.33
34176;PMS7003;20450;49.074;9.158;2023-03-31T00:41:31;1.00;1.00;1.00
34176;PMS7003;20450;49.074;9.158;2023-03-31T00:44:00;3.67;1.00;1.00
34176;PMS7003;20450;49.074;9.158;2023-03-31T00:46:35;0.00;0.00;0.00
34176;PMS7003;20450;49.074;9.158;2023-03-31T00:49:15;0.67;0.67;0.67
34176;PMS7003;20450;49.074;9.158;2023-03-31T00:51:51;2.00;0.33;0.00
34176;PMS7003;20450;49.074;9.158;2023-03-31T00:54:24;1.33;1.33;1.00
34176;PMS7003;20450;49.074;9.158;2023-03-31T00:56:55;0.67;0.67;0.00
34176;PMS7003;20450;49.074;9.158;2023-03-31T00:59:23;1.00;1.00;1.00
34176;PMS7003;20450;49.074;9.158;2023-03-31T01:01:56;1.00;1.00;1.00
34176;PMS7003;20450;49.074;9.158;2023-03-31T01:04:26;0.33;0.33;0.00
34176;PMS7003;20450;49.074;9.158;2023-03-31T01:06:55;18.50;18.50;18.50
34176;PMS7003;20450;49.074;9.158;2023-03-31T01:09:31;0.25;0.25;0.25
34176;PMS7003;20450;49.074;9.158;2023-03-31T01:11:58;2.50;2.50;1.00
34176;PMS7003;20450;49.074;9.158;2023-03-31T01:14:27;0.00;0.00;0.00
34176;PMS7003;20450;49.074;9.158;2023-03-31T01:16:54;0.00;0.00;0.00
34176;PMS7003;20450;49.074;9.158;2023-03-31T01:19:25;4.00;0.00;0.00
34176;PMS7003;20450;49.074;9.158;2023-03-31T01:22:31;0.25;0.25;0.00
34176;PMS7003;20450;49.074;9.158;2023-03-31T01:25:41;0.00;0.00;0.00
34176;PMS7003;20450;49.074;9.158;2023-03-31T01:28:56;2.50;0.75;0.75
34176;PMS7003;20450;49.074;9.158;2023-03-31T01:31:45;1.50;1.50;1.00
34176;PMS7003;20450;49.074;9.158;2023-03-31T01:41:36;1.00;1.00;0.00
34176;PMS7003;20450;49.074;9.158;2023-03-31T01:44:19;0.00;0.00;0.00
34176;PMS7003;20450;49.074;9.158;2023-03-31T01:47:05;1.00;1.00;1.00
34176;PMS7003;20450;49.074;9.158;2023-03-31T01:49:42;0.00;0.00;0.00
34176;PMS7003;20450;49.074;9.158;2023-03-31T01:52:22;0.00;0.00;0.00
34176;PMS7003;20450;49.074;9.158;2023-03-31T01:55:01;0.67;0.67;0.00
34176;PMS7003;20450;49.074;9.158;2023-03-31T01:57:39;1.33;1.00;0.00
34176;PMS7003;20450;49.074;9.158;2023-03-31T02:00:13;4.00;1.00;0.00
34176;PMS7003;20450;49.074;9.158;2023-03-31T02:02:46;0.67;0.67;0.00
34176;PMS7003;20450;49.074;9.158;2023-03-31T02:05:23;2.67;2.67;1.00
34176;PMS7003;20450;49.074;9.158;2023-03-31T02:07:53;8.25;6.00;5.75
34176;PMS7003;20450;49.074;9.158;2023-03-31T02:10:28;0.00;0.00;0.00
34176;PMS7003;20450;49.074;9.158;2023-03-31T02:12:59;0.00;0.00;0.00
34176;PMS7003;20450;49.074;9.158;2023-03-31T02:15:31;3.00;1.00;1.00
34176;PMS7003;20450;49.074;9.158;2023-03-31T02:18:05;3.75;0.00;0.00
34176;PMS7003;20450;49.074;9.158;2023-03-31T02:20:38;0.00;0.00;0.00
34176;PMS7003;20450;49.074;9.158;2023-03-31T02:23:09;2.25;0.25;0.00
34176;PMS7003;20450;49.074;9.158;2023-03-31T02:25:44;1.00;1.00;1.00
34176;PMS7003;20450;49.074;9.158;2023-03-31T02:28:18;0.00;0.00;0.00
34176;PMS7003;20450;49.074;9.158;2023-03-31T02:30:51;1.00;1.00;0.00
34176;PMS7003;20450;49.074;9.158;2023-03-31T02:33:36;1.00;0.00;0.00
34176;PMS7003;20450;49.074;9.158;2023-03-31T02:36:04;3.00;1.50;1.25
34176;PMS7003;20450;49.074;9.158;2023-03-31T02:38:32;0.00;0.00;0.00
34176;PMS7003;20450;49.074;9.158;2023-03-31T02:41:05;1.00;0.00;0.00
34176;PMS7003;20450;49.074;9.158;2023-03-31T02:43:35;0.00;0.00;0.00
34176;PMS7003;20450;49.074;9.158;2023-03-31T02:46:02;2.67;0.00;0.00
34176;PMS7003;20450;49.074;9.158;2023-03-31T02:48:30;2.00;1.67;0.67
34176;PMS7003;20450;49.074;9.158;2023-03-31T02:54:27;1.00;0.00;0.00
34176;PMS7003;20450;49.074;9.158;2023-03-31T02:57:32;0.00;0.00;0.00
34176;PMS7003;20450;49.074;9.158;2023-03-31T03:00:25;1.00;1.00;0.50
34176;PMS7003;20450;49.074;9.158;2023-03-31T03:03:16;1.00;1.00;1.00
34176;PMS7003;20450;49.074;9.158;2023-03-31T03:06:00;0.00;0.00;0.00
34176;PMS7003;20450;49.074;9.158;2023-03-31T03:09:22;0.50;0.50;0.00
34176;PMS7003;20450;49.074;9.158;2023-03-31T03:12:09;1.00;1.00;1.00
34176;PMS7003;20450;49.074;9.158;2023-03-31T03:14:47;1.00;0.00;0.00
34176;PMS7003;20450;49.074;9.158;2023-03-31T03:17:23;0.25;0.00;0.00
34176;PMS7003;20450;49.074;9.158;2023-03-31T03:19:56;0.33;0.33;0.33
34176;PMS7003;20450;49.074;9.158;2023-03-31T03:22:27;1.00;0.00;0.00
34176;PMS7003;20450;49.074;9.158;2023-03-31T03:24:54;1.00;1.00;0.00
34176;PMS7003;20450;49.074;9.158;2023-03-31T03:27:21;0.00;0.00;0.00
34176;PMS7003;20450;49.074;9.158;2023-03-31T03:29:48;0.00;0.00;0.00
34176;PMS7003;20450;49.074;9.158;2023-03-31T03:32:15;3.00;1.00;1.00
34176;PMS7003;20450;49.074;9.158;2023-03-31T03:34:43;0.00;0.00;0.00
34176;PMS7003;20450;49.074;9.158;2023-03-31T03:37:11;0.00;0.00;0.00
34176;PMS7003;20450;49.074;9.158;2023-03-31T03:39:38;0.00;0.00;0.00
34176;PMS7003;20450;49.074;9.158;2023-03-31T03:42:05;0.00;0.00;0.00
34176;PMS7003;20450;49.074;9.158;2023-03-31T03:44:32;1.00;1.00;0.75
34176;PMS7003;20450;49.074;9.158;2023-03-31T03:46:59;0.00;0.00;0.00
34176;PMS7003;20450;49.074;9.158;2023-03-31T03:49:26;3.00;0.00;0.00
34176;PMS7003;20450;49.074;9.158;2023-03-31T03:51:54;2.50;0.50;0.50
34176;PMS7003;20450;49.074;9.158;2023-03-31T03:54:21;0.00;0.00;0.00
34176;PMS7003;20450;49.074;9.158;2023-03-31T03:56:48;0.00;0.00;0.00
34176;PMS7003;20450;49.074;9.158;2023-03-31T03:59:15;1.50;0.00;0.00
34176;PMS7003;20450;49.074;9.158;2023-03-31T04:01:42;0.00;0.00;0.00
34176;PMS7003;20450;49.074;9.158;2023-03-31T04:04:09;1.00;1.00;0.00
34176;PMS7003;20450;49.074;9.158;2023-03-31T04:06:36;2.00;2.00;2.00
34176;PMS7003;20450;49.074;9.158;2023-03-31T04:09:04;6.00;1.50;1.00
34176;PMS7003;20450;49.074;9.158;2023-03-31T04:11:32;1.00;1.00;0.50
34176;PMS7003;20450;49.074;9.158;2023-03-31T04:13:59;1.00;1.00;1.00
34176;PMS7003;20450;49.074;9.158;2023-03-31T04:16:26;0.00;0.00;0.00
34176;PMS7003;20450;49.074;9.158;2023-03-31T04:18:53;1.00;1.00;1.00
34176;PMS7003;20450;49.074;9.158;2023-03-31T04:21:21;0.00;0.00;0.00
34176;PMS7003;20450;49.074;9.158;2023-03-31T04:23:50;6.33;3.67;1.00
34176;PMS7003;20450;49.074;9.158;2023-03-31T04:26:20;3.00;1.00;1.00
34176;PMS7003;20450;49.074;9.158;2023-03-31T04:28:48;0.00;0.00;0.00
34176;PMS7003;20450;49.074;9.158;2023-03-31T04:31:16;1.00;1.00;1.00
34176;PMS7003;20450;49.074;9.158;2023-03-31T04:33:43;1.00;1.00;1.00
34176;PMS7003;20450;49.074;9.158;2023-03-31T04:36:10;0.67;0.00;0.00
34176;PMS7003;20450;49.074;9.158;2023-03-31T04:38:37;3.00;3.00;3.00
34176;PMS7003;20450;49.074;9.158;2023-03-31T04:41:04;3.00;3.00;1.67
34176;PMS7003;20450;49.074;9.158;2023-03-31T04:43:33;4.00;3.00;1.00
34176;PMS7003;20450;49.074;9.158;2023-03-31T04:45:59;4.33;3.00;1.00
34176;PMS7003;20450;49.074;9.158;2023-03-31T04:48:26;6.33;6.33;4.67
34176;PMS7003;20450;49.074;9.158;2023-03-31T04:50:53;2.33;2.33;1.00
34176;PMS7003;20450;49.074;9.158;2023-03-31T04:53:20;4.33;3.67;3.67
34176;PMS7003;20450;49.074;9.158;2023-03-31T04:55:47;15.25;12.50;9.00
34176;PMS7003;20450;49.074;9.158;2023-03-31T04:58:15;3.67;3.00;2.67
34176;PMS7003;20450;49.074;9.158;2023-03-31T05:00:43;17.00;15.50;14.00
34176;PMS7003;20450;49.074;9.158;2023-03-31T05:03:11;15.25;15.25;15.25
34176;PMS7003;20450;49.074;9.158;2023-03-31T05:05:38;0.33;0.33;0.00
34176;PMS7003;20450;49.074;9.158;2023-03-31T05:08:05;4.00;3.00;3.00
34176;PMS7003;20450;49.074;9.158;2023-03-31T05:10:31;4.67;3.33;3.00
34176;PMS7003;20450;49.074;9.158;2023-03-31T05:12:58;1.67;1.67;1.00
34176;PMS7003;20450;49.074;9.158;2023-03-31T05:15:26;4.00;1.00;1.00
34176;PMS7003;20450;49.074;9.158;2023-03-31T05:17:54;7.75;3.50;1.50
34176;PMS7003;20450;49.074;9.158;2023-03-31T05:20:23;5.75;3.75;3.00
34176;PMS7003;20450;49.074;9.158;2023-03-31T05:22:50;3.75;3.75;3.50
34176;PMS7003;20450;49.074;9.158;2023-03-31T05:25:17;4.00;4.00;3.00
34176;PMS7003;20450;49.074;9.158;2023-03-31T05:27:44;3.75;3.75;3.00
34176;PMS7003;20450;49.074;9.158;2023-03-31T05:30:13;2.50;1.50;1.50
34176;PMS7003;20450;49.074;9.158;2023-03-31T05:32:41;2.50;2.00;1.00
34176;PMS7003;20450;49.074;9.158;2023-03-31T05:35:10;5.00;3.50;3.00
34176;PMS7003;20450;49.074;9.158;2023-03-31T05:37:37;3.50;3.50;3.00
34176;PMS7003;20450;49.074;9.158;2023-03-31T05:40:04;3.00;3.00;1.00
34176;PMS7003;20450;49.074;9.158;2023-03-31T05:42:33;4.00;3.50;1.00
34176;PMS7003;20450;49.074;9.158;2023-03-31T05:45:01;3.50;3.00;2.00
34176;PMS7003;20450;49.074;9.158;2023-03-31T05:47:29;4.00;4.00;3.00
34176;PMS7003;20450;49.074;9.158;2023-03-31T05:49:56;6.75;6.00;4.50
34176;PMS7003;20450;49.074;9.158;2023-03-31T05:52:25;7.00;5.50;4.00
34176;PMS7003;20450;49.074;9.158;2023-03-31T05:54:52;1.50;1.50;1.00
34176;PMS7003;20450;49.074;9.158;2023-03-31T05:57:19;7.00;6.25;4.00
34176;PMS7003;20450;49.074;9.158;2023-03-31T05:59:46;8.75;6.00;4.00
34176;PMS7003;20450;49.074;9.158;2023-03-31T06:02:13;5.50;5.50;3.50
34176;PMS7003;20450;49.074;9.158;2023-03-31T06:04:40;4.50;4.00;2.50
34176;PMS7003;20450;49.074;9.158;2023-03-31T06:07:07;9.25;7.00;4.00
34176;PMS7003;20450;49.074;9.158;2023-03-31T06:09:35;7.00;7.00;5.00
34176;PMS7003;20450;49.074;9.158;2023-03-31T06:12:02;4.00;4.00;3.50
34176;PMS7003;20450;49.074;9.158;2023-03-31T06:14:30;3.50;3.50;3.00
34176;PMS7003;20450;49.074;9.158;2023-03-31T06:16:57;10.00;6.00;4.00
34176;PMS7003;20450;49.074;9.158;2023-03-31T06:19:24;10.50;6.25;5.00
34176;PMS7003;20450;49.074;9.158;2023-03-31T06:21:51;7.00;6.25;4.00
34176;PMS7003;20450;49.074;9.158;2023-03-31T06:24:18;5.50;4.00;3.25
34176;PMS7003;20450;49.074;9.158;2023-03-31T06:26:46;6.50;6.50;5.00
34176;PMS7003;20450;49.074;9.158;2023-03-31T06:29:14;10.00;10.00;7.50
34176;PMS7003;20450;49.074;9.158;2023-03-31T06:31:41;8.75;8.75;6.50
34176;PMS7003;20450;49.074;9.158;2023-03-31T06:34:09;7.00;4.00;3.50
34176;PMS7003;20450;49.074;9.158;2023-03-31T06:36:36;6.00;6.00;4.00
34176;PMS7003;20450;49.074;9.158;2023-03-31T06:39:05;6.75;6.75;6.00
34176;PMS7003;20450;49.074;9.158;2023-03-31T06:41:35;11.00;9.00;6.00
34176;PMS7003;20450;49.074;9.158;2023-03-31T06:44:04;7.00;6.00;4.00
34176;PMS7003;20450;49.074;9.158;2023-03-31T06:46:32;5.00;5.00;4.00
34176;PMS7003;20450;49.074;9.158;2023-03-31T06:48:59;10.50;9.00;6.75
34176;PMS7003;20450;49.074;9.158;2023-03-31T06:51:26;6.00;6.00;4.00
34176;PMS7003;20450;49.074;9.158;2023-03-31T06:53:54;10.00;9.25;6.75
34176;PMS7003;20450;49.074;9.158;2023-03-31T06:56:21;14.50;11.75;8.50
34176;PMS7003;20450;49.074;9.158;2023-03-31T06:58:48;11.75;9.75;7.00
34176;PMS7003;20450;49.074;9.158;2023-03-31T07:01:17;9.25;7.50;6.00
34176;PMS7003;20450;49.074;9.158;2023-03-31T07:03:46;6.50;6.50;3.00
34176;PMS7003;20450;49.074;9.158;2023-03-31T07:06:13;12.75;11.25;6.75
34176;PMS7003;20450;49.074;9.158;2023-03-31T07:08:40;10.00;10.00;9.00
34176;PMS7003;20450;49.074;9.158;2023-03-31T07:11:07;6.50;6.25;5.50
34176;PMS7003;20450;49.074;9.158;2023-03-31T07:13:35;9.00;4.50;3.25
34176;PMS7003;20450;49.074;9.158;2023-03-31T07:16:02;6.25;4.50;3.00
34176;PMS7003;20450;49.074;9.158;2023-03-31T07:18:31;7.50;7.50;6.00
34176;PMS7003;20450;49.074;9.158;2023-03-31T07:21:02;10.00;8.00;6.00
34176;PMS7003;20450;49.074;9.158;2023-03-31T07:23:35;9.75;9.00;7.00
34176;PMS7003;20450;49.074;9.158;2023-03-31T07:26:03;6.75;6.75;5.50
34176;PMS7003;20450;49.074;9.158;2023-03-31T07:28:31;8.00;6.75;5.50
34176;PMS7003;20450;49.074;9.158;2023-03-31T07:31:00;9.00;7.00;6.00
34176;PMS7003;20450;49.074;9.158;2023-03-31T07:33:27;9.25;7.00;5.50
34176;PMS7003;20450;49.074;9.158;2023-03-31T07:35:55;6.25;4.50;3.25
34176;PMS7003;20450;49.074;9.158;2023-03-31T07:38:44;7.50;6.00;4.00
34176;PMS7003;20450;49.074;9.158;2023-03-31T07:41:46;8.75;7.50;7.00
34176;PMS7003;20450;49.074;9.158;2023-03-31T07:44:36;6.25;5.50;4.50
34176;PMS7003;20450;49.074;9.158;2023-03-31T07:47:03;9.00;9.00;7.00
34176;PMS7003;20450;49.074;9.158;2023-03-31T07:49:31;11.50;9.75;7.50
34176;PMS7003;20450;49.074;9.158;2023-03-31T07:52:01;12.75;9.00;6.50
34176;PMS7003;20450;49.074;9.158;2023-03-31T07:54:28;6.50;6.50;5.00
34176;PMS7003;20450;49.074;9.158;2023-03-31T07:56:55;9.25;7.00;6.00
34176;PMS7003;20450;49.074;9.158;2023-03-31T07:59:22;9.00;7.00;4.50
34176;PMS7003;20450;49.074;9.158;2023-03-31T08:01:49;6.75;6.50;5.00
34176;PMS7003;20450;49.074;9.158;2023-03-31T08:04:17;9.00;7.00;6.00
34176;PMS7003;20450;49.074;9.158;2023-03-31T08:06:44;6.00;5.50;4.50
34176;PMS7003;20450;49.074;9.158;2023-03-31T08:09:12;3.25;3.25;3.00
34176;PMS7003;20450;49.074;9.158;2023-03-31T08:11:39;6.00;6.00;4.00
34176;PMS7003;20450;49.074;9.158;2023-03-31T08:14:07;4.67;4.00;3.00
34176;PMS7003;20450;49.074;9.158;2023-03-31T08:16:34;4.67;4.67;3.00
34176;PMS7003;20450;49.074;9.158;2023-03-31T08:19:02;4.00;4.00;3.00
34176;PMS7003;20450;49.074;9.158;2023-03-31T08:21:29;3.00;3.00;1.00
34176;PMS7003;20450;49.074;9.158;2023-03-31T08:23:56;4.33;3.33;3.00
34176;PMS7003;20450;49.074;9.158;2023-03-31T08:26:25;5.00;5.00;3.00
34176;PMS7003;20450;49.074;9.158;2023-03-31T08:28:52;4.00;4.00;2.33
34176;PMS7003;20450;49.074;9.158;2023-03-31T08:31:20;3.00;3.00;3.00
34176;PMS7003;20450;49.074;9.158;2023-03-31T08:33:48;2.25;1.00;1.00
34176;PMS7003;20450;49.074;9.158;2023-03-31T08:36:15;0.75;0.75;0.75
34176;PMS7003;20450;49.074;9.158;2023-03-31T08:38:43;5.25;2.25;1.00
34176;PMS7003;20450;49.074;9.158;2023-03-31T08:41:13;2.00;2.00;1.75
34176;PMS7003;20450;49.074;9.158;2023-03-31T08:43:59;1.00;1.00;1.00
34176;PMS7003;20450;49.074;9.158;2023-03-31T08:46:34;4.00;2.00;1.25
34176;PMS7003;20450;49.074;9.158;2023-03-31T08:49:02;1.50;1.50;1.00
34176;PMS7003;20450;49.074;9.158;2023-03-31T08:51:34;0.50;0.25;0.25
34176;PMS7003;20450;49.074;9.158;2023-03-31T08:54:10;1.50;1.50;1.00
34176;PMS7003;20450;49.074;9.158;2023-03-31T08:56:46;1.00;1.00;0.75
34176;PMS7003;20450;49.074;9.158;2023-03-31T08:59:17;1.75;1.75;1.75
34176;PMS7003;20450;49.074;9.158;2023-03-31T09:01:55;0.75;0.50;0.50
34176;PMS7003;20450;49.074;9.158;2023-03-31T09:09:21;0.00;0.00;0.00
34176;PMS7003;20450;49.074;9.158;2023-03-31T09:12:06;0.00;0.00;0.00
34176;PMS7003;20450;49.074;9.158;2023-03-31T09:14:43;1.00;1.00;1.00
34176;PMS7003;20450;49.074;9.158;2023-03-31T09:17:22;1.00;1.00;1.00
34176;PMS7003;20450;49.074;9.158;2023-03-31T09:19:53;2.00;1.00;0.50
34176;PMS7003;20450;49.074;9.158;2023-03-31T09:23:52;0.00;0.00;0.00
34176;PMS7003;20450;49.074;9.158;2023-03-31T09:27:40;2.25;2.25;1.75
34176;PMS7003;20450;49.074;9.158;2023-03-31T09:31:52;0.00;0.00;0.00
34176;PMS7003;20450;49.074;9.158;2023-03-31T09:34:24;0.00;0.00;0.00
34176;PMS7003;20450;49.074;9.158;2023-03-31T09:37:09;0.00;0.00;0.00
34176;PMS7003;20450;49.074;9.158;2023-03-31T09:39:58;0.60;0.00;0.00
34176;PMS7003;20450;49.074;9.158;2023-03-31T09:42:33;0.00;0.00;0.00
34176;PMS7003;20450;49.074;9.158;2023-03-31T09:45:02;2.20;1.00;1.00
34176;PMS7003;20450;49.074;9.158;2023-03-31T09:47:31;1.60;1.00;1.00
34176;PMS7003;20450;49.074;9.158;2023-03-31T09:50:05;0.00;0.00;0.00
34176;PMS7003;20450;49.074;9.158;2023-03-31T09:52:37;1.00;1.00;0.00
34176;PMS7003;20450;49.074;9.158;2023-03-31T09:55:15;1.60;0.00;0.00
34176;PMS7003;20450;49.074;9.158;2023-03-31T10:01:50;0.00;0.00;0.00
34176;PMS7003;20450;49.074;9.158;2023-03-31T10:04:24;0.00;0.00;0.00
34176;PMS7003;20450;49.074;9.158;2023-03-31T10:06:55;0.80;0.80;0.00
34176;PMS7003;20450;49.074;9.158;2023-03-31T10:09:25;0.40;0.00;0.00
34176;PMS7003;20450;49.074;9.158;2023-03-31T10:11:57;1.00;1.00;0.00
34176;PMS7003;20450;49.074;9.158;2023-03-31T10:14:37;0.75;0.75;0.50
34176;PMS7003;20450;49.074;9.158;2023-03-31T10:17:12;0.00;0.00;0.00
34176;PMS7003;20450;49.074;9.158;2023-03-31T10:19:46;0.00;0.00;0.00
34176;PMS7003;20450;49.074;9.158;2023-03-31T10:22:25;0.00;0.00;0.00
34176;PMS7003;20450;49.074;9.158;2023-03-31T10:25:03;0.75;0.00;0.00
34176;PMS7003;20450;49.074;9.158;2023-03-31T10:27:39;0.00;0.00;0.00
34176;PMS7003;20450;49.074;9.158;2023-03-31T10:30:10;1.00;1.00;0.00
34176;PMS7003;20450;49.074;9.158;2023-03-31T10:32:47;0.50;0.00;0.00
34176;PMS7003;20450;49.074;9.158;2023-03-31T10:35:21;0.00;0.00;0.00
34176;PMS7003;20450;49.074;9.158;2023-03-31T10:37:53;1.00;0.00;0.00
34176;PMS7003;20450;49.074;9.158;2023-03-31T10:40:25;0.25;0.25;0.00
34176;PMS7003;20450;49.074;9.158;2023-03-31T10:42:58;0.50;0.00;0.00
34176;PMS7003;20450;49.074;9.158;2023-03-31T10:45:37;0.00;0.00;0.00
34176;PMS7003;20450;49.074;9.158;2023-03-31T10:48:16;1.00;1.00;0.50
34176;PMS7003;20450;49.074;9.158;2023-03-31T10:50:49;0.00;0.00;0.00
34176;PMS7003;20450;49.074;9.158;2023-03-31T10:53:17;0.00;0.00;0.00
34176;PMS7003;20450;49.074;9.158;2023-03-31T10:55:48;0.00;0.00;0.00
34176;PMS7003;20450;49.074;9.158;2023-03-31T10:58:33;1.00;0.00;0.00
34176;PMS7003;20450;49.074;9.158;2023-03-31T11:01:35;1.00;0.00;0.00
34176;PMS7003;20450;49.074;9.158;2023-03-31T11:07:22;0.80;0.80;0.60
34176;PMS7003;20450;49.074;9.158;2023-03-31T11:10:04;0.00;0.00;0.00
34176;PMS7003;20450;49.074;9.158;2023-03-31T11:12:55;0.80;0.00;0.00
34176;PMS7003;20450;49.074;9.158;2023-03-31T11:15:32;0.40;0.00;0.00
34176;PMS7003;20450;49.074;9.158;2023-03-31T11:18:17;0.00;0.00;0.00
34176;PMS7003;20450;49.074;9.158;2023-03-31T11:21:02;0.00;0.00;0.00
34176;PMS7003;20450;49.074;9.158;2023-03-31T11:23:48;0.00;0.00;0.00
34176;PMS7003;20450;49.074;9.158;2023-03-31T11:26:32;0.00;0.00;0.00
34176;PMS7003;20450;49.074;9.158;2023-03-31T11:29:20;0.00;0.00;0.00
34176;PMS7003;20450;49.074;9.158;2023-03-31T11:32:05;0.75;0.00;0.00
34176;PMS7003;20450;49.074;9.158;2023-03-31T11:35:01;0.00;0.00;0.00
34176;PMS7003;20450;49.074;9.158;2023-03-31T11:37:45;0.00;0.00;0.00
34176;PMS7003;20450;49.074;9.158;2023-03-31T11:40:36;0.00;0.00;0.00
34176;PMS7003;20450;49.074;9.158;2023-03-31T11:43:22;0.00;0.00;0.00
34176;PMS7003;20450;49.074;9.158;2023-03-31T11:45:59;0.00;0.00;0.00
34176;PMS7003;20450;49.074;9.158;2023-03-31T11:48:36;0.00;0.00;0.00
34176;PMS7003;20450;49.074;9.158;2023-03-31T11:51:13;0.00;0.00;0.00
34176;PMS7003;20450;49.074;9.158;2023-03-31T11:53:46;0.75;0.00;0.00
34176;PMS7003;20450;49.074;9.158;2023-03-31T11:56:16;0.00;0.00;0.00
34176;PMS7003;20450;49.074;9.158;2023-03-31T11:58:48;0.75;0.00;0.00
34176;PMS7003;20450;49.074;9.158;2023-03-31T12:01:20;0.00;0.00;0.00
34176;PMS7003;20450;49.074;9.158;2023-03-31T12:03:56;0.00;0.00;0.00
34176;PMS7003;20450;49.074;9.158;2023-03-31T12:06:33;0.00;0.00;0.00
34176;PMS7003;20450;49.074;9.158;2023-03-31T12:09:09;0.75;0.00;0.00
34176;PMS7003;20450;49.074;9.158;2023-03-31T12:11:45;0.00;0.00;0.00
34176;PMS7003;20450;49.074;9.158;2023-03-31T12:14:22;0.00;0.00;0.00
34176;PMS7003;20450;49.074;9.158;2023-03-31T12:16:59;0.00;0.00;0.00
34176;PMS7003;20450;49.074;9.158;2023-03-31T12:19:35;0.00;0.00;0.00
34176;PMS7003;20450;49.074;9.158;2023-03-31T12:22:15;0.00;0.00;0.00
34176;PMS7003;20450;49.074;9.158;2023-03-31T12:24:50;0.00;0.00;0.00
34176;PMS7003;20450;49.074;9.158;2023-03-31T12:27:22;0.00;0.00;0.00
34176;PMS7003;20450;49.074;9.158;2023-03-31T12:30:00;0.00;0.00;0.00
34176;PMS7003;20450;49.074;9.158;2023-03-31T12:32:35;0.00;0.00;0.00
34176;PMS7003;20450;49.074;9.158;2023-03-31T12:35:09;0.00;0.00;0.00
34176;PMS7003;20450;49.074;9.158;2023-03-31T12:38:11;0.25;0.00;0.00
34176;PMS7003;20450;49.074;9.158;2023-03-31T12:40:56;0.00;0.00;0.00
34176;PMS7003;20450;49.074;9.158;2023-03-31T12:46:46;0.00;0.00;0.00
34176;PMS7003;20450;49.074;9.158;2023-03-31T12:49:50;0.00;0.00;0.00
34176;PMS7003;20450;49.074;9.158;2023-03-31T12:52:35;0.25;0.00;0.00
34176;PMS7003;20450;49.074;9.158;2023-03-31T12:55:32;0.25;0.25;0.00
34176;PMS7003;20450;49.074;9.158;2023-03-31T13:01:09;0.00;0.00;0.00
34176;PMS7003;20450;49.074;9.158;2023-03-31T13:03:50;2.00;0.00;0.00
34176;PMS7003;20450;49.074;9.158;2023-03-31T13:09:39;1.25;0.25;0.25
34176;PMS7003;20450;49.074;9.158;2023-03-31T13:12:18;0.00;0.00;0.00
34176;PMS7003;20450;49.074;9.158;2023-03-31T13:14:49;0.00;0.00;0.00
34176;PMS7003;20450;49.074;9.158;2023-03-31T13:17:23;0.00;0.00;0.00
34176;PMS7003;20450;49.074;9.158;2023-03-31T13:19:54;0.00;0.00;0.00
34176;PMS7003;20450;49.074;9.158;2023-03-31T13:22:40;0.00;0.00;0.00
34176;PMS7003;20450;49.074;9.158;2023-03-31T13:28:29;0.00;0.00;0.00
34176;PMS7003;20450;49.074;9.158;2023-03-31T13:31:04;0.25;0.00;0.00
34176;PMS7003;20450;49.074;9.158;2023-03-31T13:33:34;0.25;0.25;0.00
34176;PMS7003;20450;49.074;9.158;2023-03-31T13:36:18;0.00;0.00;0.00
34176;PMS7003;20450;49.074;9.158;2023-03-31T13:39:23;0.00;0.00;0.00
34176;PMS7003;20450;49.074;9.158;2023-03-31T13:42:13;0.00;0.00;0.00
34176;PMS7003;20450;49.074;9.158;2023-03-31T13:45:09;0.00;0.00;0.00
34176;PMS7003;20450;49.074;9.158;2023-03-31T13:48:13;0.00;0.00;0.00
34176;PMS7003;20450;49.074;9.158;2023-03-31T13:51:22;0.00;0.00;0.00
34176;PMS7003;20450;49.074;9.158;2023-03-31T13:54:29;0.00;0.00;0.00
34176;PMS7003;20450;49.074;9.158;2023-03-31T13:57:31;0.00;0.00;0.00
34176;PMS7003;20450;49.074;9.158;2023-03-31T14:01:04;0.00;0.00;0.00
34176;PMS7003;20450;49.074;9.158;2023-03-31T14:03:55;1.00;0.00;0.00
34176;PMS7003;20450;49.074;9.158;2023-03-31T14:06:36;0.00;0.00;0.00
34176;PMS7003;20450;49.074;9.158;2023-03-31T14:09:10;0.00;0.00;0.00
34176;PMS7003;20450;49.074;9.158;2023-03-31T14:11:48;0.00;0.00;0.00
34176;PMS7003;20450;49.074;9.158;2023-03-31T14:14:15;0.75;0.75;0.00
34176;PMS7003;20450;49.074;9.158;2023-03-31T14:16:46;1.00;1.00;0.00
34176;PMS7003;20450;49.074;9.158;2023-03-31T14:19:31;0.00;0.00;0.00
34176;PMS7003;20450;49.074;9.158;2023-03-31T14:22:27;0.00;0.00;0.00
34176;PMS7003;20450;49.074;9.158;2023-03-31T14:25:10;0.00;0.00;0.00
34176;PMS7003;20450;49.074;9.158;2023-03-31T14:27:54;0.00;0.00;0.00
34176;PMS7003;20450;49.074;9.158;2023-03-31T14:30:36;0.00;0.00;0.00
34176;PMS7003;20450;49.074;9.158;2023-03-31T14:33:20;1.00;0.00;0.00
34176;PMS7003;20450;49.074;9.158;2023-03-31T14:36:04;0.00;0.00;0.00
34176;PMS7003;20450;49.074;9.158;2023-03-31T14:38:44;0.00;0.00;0.00
34176;PMS7003;20450;49.074;9.158;2023-03-31T14:41:14;0.00;0.00;0.00
34176;PMS7003;20450;49.074;9.158;2023-03-31T14:43:45;0.00;0.00;0.00
34176;PMS7003;20450;49.074;9.158;2023-03-31T14:46:18;0.00;0.00;0.00
34176;PMS7003;20450;49.074;9.158;2023-03-31T14:48:48;0.00;0.00;0.00
34176;PMS7003;20450;49.074;9.158;2023-03-31T14:51:17;0.00;0.00;0.00
34176;PMS7003;20450;49.074;9.158;2023-03-31T14:53:55;0.00;0.00;0.00
34176;PMS7003;20450;49.074;9.158;2023-03-31T14:56:25;0.00;0.00;0.00
34176;PMS7003;20450;49.074;9.158;2023-03-31T14:58:58;0.00;0.00;0.00
34176;PMS7003;20450;49.074;9.158;2023-03-31T15:01:28;0.00;0.00;0.00
34176;PMS7003;20450;49.074;9.158;2023-03-31T15:03:59;0.00;0.00;0.00
34176;PMS7003;20450;49.074;9.158;2023-03-31T15:06:31;0.00;0.00;0.00
34176;PMS7003;20450;49.074;9.158;2023-03-31T15:09:00;0.00;0.00;0.00
34176;PMS7003;20450;49.074;9.158;2023-03-31T15:11:29;0.00;0.00;0.00
34176;PMS7003;20450;49.074;9.158;2023-03-31T15:14:10;0.00;0.00;0.00
34176;PMS7003;20450;49.074;9.158;2023-03-31T15:16:39;0.00;0.00;0.00
34176;PMS7003;20450;49.074;9.158;2023-03-31T15:19:14;0.00;0.00;0.00
34176;PMS7003;20450;49.074;9.158;2023-03-31T15:21:45;0.00;0.00;0.00
34176;PMS7003;20450;49.074;9.158;2023-03-31T15:24:19;1.00;0.00;0.00
34176;PMS7003;20450;49.074;9.158;2023-03-31T15:26:48;0.00;0.00;0.00
34176;PMS7003;20450;49.074;9.158;2023-03-31T15:36:27;0.00;0.00;0.00
34176;PMS7003;20450;49.074;9.158;2023-03-31T15:38:58;0.25;0.25;0.25
34176;PMS7003;20450;49.074;9.158;2023-03-31T15:41:28;0.00;0.00;0.00
34176;PMS7003;20450;49.074;9.158;2023-03-31T15:44:05;0.00;0.00;0.00
34176;PMS7003;20450;49.074;9.158;2023-03-31T15:46:58;0.00;0.00;0.00
34176;PMS7003;20450;49.074;9.158;2023-03-31T15:49:28;0.00;0.00;0.00